Professional Rodeo Cowboys Association
PRCA RAM WORLD STANDINGS
ProRodeo Gear Official Merchandise Of The PRCA

PRCA Stock Statistics

SEARCH BY:
Stock Rodeo Contestant Stock Contractor

Hunter Green

EVENT:
Unofficial results reflect placement at time of Web posting and can change.

SEASON BREAKDOWN

Season Attempts Qual Rides Re-rides Ride %
2019 43 32 0 74.42 %
Totals 43 32 0 0.00 %

RODEO DETAIL

Date Location Rodeo SC Brand Ride Comments Stock Score Contestant Score
9/14/2019 Forrest City, AR Crowley s Ridge Saddle Club Charity Rodeo UR X40 78.00 19.00 / 18.00 21.00 / 20.00
9/13/2019 Hot Springs, AR Garland County Fair and Rodeo GP 43 72.00 18.00 / 18.00 17.00 / 19.00
9/6/2019 Poplar Bluff, MO Three Rivers Shrine Club Championship Rodeo GP 21K 70.00 18.00 / 18.00 18.00 / 16.00
8/31/2019 Henryetta, OK Jim Shoulders Living Legends Rodeo KH -179 0.00 23.00 / 22.00 0.00 / 0.00
8/30/2019 Vinita, OK Will Rogers Memorial Rodeo RH 54 0.00 20.00 / 21.00 0.00 / 0.00
7/27/2019 Burwell, NE Nebraska s Big Rodeo BU 263 0.00 22.50 / 22.50 0.00 / 0.00
7/26/2019 Deadwood, SD Deadwood Days Of 76 Rodeo BR 307 76.00 20.00 / 16.00 20.00 / 20.00
7/25/2019 Rock Springs, WY Red Desert Roundup PR 3284 0.00 21.50 / 23.50 0.00 / 0.00
7/24/2019 Ogden, UT Ogden Pioneer Days SS 941 0.00 17.00 / 17.00 0.00 / 0.00
7/23/2019 Cheyenne, WY Cheyenne Frontier Days SS J334+ 72.50 16.00 / 18.00 21.50 / 17.00
7/19/2019 Wapello, IA Wapello Pro Rodeo BA 6E2 74.00 18.00 / 16.00 19.00 / 21.00
7/18/2019 Pretty Prairie, KS Kansas Largest Night Rodeo BU 156 71.00 19.00 / 19.50 14.00 / 18.50
7/13/2019 Spooner, WI Heart Of The North Rodeo UR 293 76.00 19.00 / 18.00 18.00 / 21.00
7/12/2019 Isanti, MN 43rd Annual Isanti Firefighters Rodeo DK 444 78.50 19.00 / 20.50 19.00 / 20.00
7/11/2019 Hamel, MN Hamel Rodeo & Bull Ridin Bonanza JB N358 76.00 18.00 / 19.00 20.00 / 19.00
7/6/2019 Manawa, WI Mid-Western Rodeo TH J23 80.50 21.50 / 22.00 21.00 / 16.00
7/5/2019 Galena, IL Shenandoah Pro Rodeo TH E21 78.00 18.00 / 18.00 23.00 / 19.00
7/4/2019 Mandan, ND Mandan Rodeo Days DK 173 0.00 21.50 / 20.00 0.00 / 0.00
7/3/2019 Greeley, CO Greeley Stampede BU 90 0.00 23.00 / 23.00 0.00 / 0.00
7/1/2019 Prescott, AZ World s Oldest Rodeo HV 202 76.00 18.50 / 21.00 18.50 / 18.00
6/29/2019 Greeley, CO Greeley Stampede BU 727 82.50 20.50 / 21.00 20.50 / 20.50
6/28/2019 Springdale, AR Rodeo of The Ozarks RH 01 64.00 22.00 / 21.00 13.00 / 8.00
5/17/2019 Shawnee, OK Cowboy Country Fest BF 32 74.00 19.00 / 20.00 18.00 / 17.00
5/11/2019 Las Vegas, NV Las Vegas Days (Helldorado) BT A+6 73.00 17.00 / 19.00 17.00 / 20.00
4/25/2019 Corpus Christi, TX Rodeo Corpus Christi FR 305 0.00 22.50 / 23.00 0.00 / 0.00
Page of 2
Per Page
 
 
 
PRCA Sponsors

MGM Grand Polaris Ranger Cinch Jeans Bloomer Trailers Gold Buckle Beer Outlaw Equine

Copyright © 2019 Professional Rodeo Cowboys Association. All rights reserved. No portion of ProRodeo.com may be duplicated, redistributed or manipulated in any form. By accessing any information beyond this page, you agree to abide by the Terms of Use.


PRCA Wrangler National Finals Rodeo Wrangler ProRodeo Tour Finale Presented by Justin Boots Xtreme Bulls RAM National Circuit Finals Rodeo ProRodeo Gear ProRodeo Tour World Standings Tour Standings PRCA Rodeo Schedule Rodeo Results Facebook Twitter Instagram YouTube Mobile App ProRodeoTv.Com